sensor_id;sensor_type;location;lat;lon;timestamp;temperature;humidity
652;DHT22;310;48.490;9.200;2022-08-19T00:01:49;23.80;67.20
652;DHT22;310;48.490;9.200;2022-08-19T00:04:17;23.90;67.20
652;DHT22;310;48.490;9.200;2022-08-19T00:06:45;23.90;68.10
652;DHT22;310;48.490;9.200;2022-08-19T00:09:14;23.90;66.10
652;DHT22;310;48.490;9.200;2022-08-19T00:11:40;23.90;66.30
652;DHT22;310;48.490;9.200;2022-08-19T00:14:08;23.90;65.80
652;DHT22;310;48.490;9.200;2022-08-19T00:16:36;23.90;65.10
652;DHT22;310;48.490;9.200;2022-08-19T00:19:03;23.90;65.90
652;DHT22;310;48.490;9.200;2022-08-19T00:21:28;23.80;66.00
652;DHT22;310;48.490;9.200;2022-08-19T00:23:55;23.90;65.20
652;DHT22;310;48.490;9.200;2022-08-19T00:26:24;23.90;66.80
652;DHT22;310;48.490;9.200;2022-08-19T00:28:50;23.70;67.00
652;DHT22;310;48.490;9.200;2022-08-19T00:31:16;23.70;68.10
652;DHT22;310;48.490;9.200;2022-08-19T00:33:42;23.90;66.00
652;DHT22;310;48.490;9.200;2022-08-19T00:36:11;23.80;66.10
652;DHT22;310;48.490;9.200;2022-08-19T00:38:38;23.70;67.00
652;DHT22;310;48.490;9.200;2022-08-19T00:41:06;23.60;67.50
652;DHT22;310;48.490;9.200;2022-08-19T00:43:32;23.70;67.60
652;DHT22;310;48.490;9.200;2022-08-19T00:45:57;23.70;66.80
652;DHT22;310;48.490;9.200;2022-08-19T00:48:23;23.80;66.80
652;DHT22;310;48.490;9.200;2022-08-19T00:50:50;23.80;66.50
652;DHT22;310;48.490;9.200;2022-08-19T00:53:20;23.80;66.30
652;DHT22;310;48.490;9.200;2022-08-19T00:55:48;23.80;65.70
652;DHT22;310;48.490;9.200;2022-08-19T00:58:17;23.80;65.90
652;DHT22;310;48.490;9.200;2022-08-19T01:00:44;23.70;66.10
652;DHT22;310;48.490;9.200;2022-08-19T01:03:13;23.60;65.90
652;DHT22;310;48.490;9.200;2022-08-19T01:05:41;23.60;66.50
652;DHT22;310;48.490;9.200;2022-08-19T01:08:07;23.60;67.20
652;DHT22;310;48.490;9.200;2022-08-19T01:10:41;23.70;66.90
652;DHT22;310;48.490;9.200;2022-08-19T01:13:09;23.80;65.70
652;DHT22;310;48.490;9.200;2022-08-19T01:15:42;23.80;65.70
652;DHT22;310;48.490;9.200;2022-08-19T01:18:11;23.90;61.40
652;DHT22;310;48.490;9.200;2022-08-19T01:20:39;23.80;61.40
652;DHT22;310;48.490;9.200;2022-08-19T01:23:04;24.00;60.00
652;DHT22;310;48.490;9.200;2022-08-19T01:25:43;23.90;59.60
652;DHT22;310;48.490;9.200;2022-08-19T01:28:17;23.90;61.10
652;DHT22;310;48.490;9.200;2022-08-19T01:30:44;23.90;61.40
652;DHT22;310;48.490;9.200;2022-08-19T01:33:10;23.60;63.70
652;DHT22;310;48.490;9.200;2022-08-19T01:35:36;23.60;64.30
652;DHT22;310;48.490;9.200;2022-08-19T01:38:05;23.70;59.50
652;DHT22;310;48.490;9.200;2022-08-19T01:40:35;23.90;58.60
652;DHT22;310;48.490;9.200;2022-08-19T01:43:02;23.90;60.10
652;DHT22;310;48.490;9.200;2022-08-19T01:45:30;23.80;59.60
652;DHT22;310;48.490;9.200;2022-08-19T01:47:58;23.70;61.20
652;DHT22;310;48.490;9.200;2022-08-19T01:50:24;23.60;62.90
652;DHT22;310;48.490;9.200;2022-08-19T01:52:51;23.60;63.40
652;DHT22;310;48.490;9.200;2022-08-19T01:55:19;23.50;62.90
652;DHT22;310;48.490;9.200;2022-08-19T01:57:51;23.50;64.30
652;DHT22;310;48.490;9.200;2022-08-19T02:00:20;23.50;63.80
652;DHT22;310;48.490;9.200;2022-08-19T02:02:46;23.50;64.50
652;DHT22;310;48.490;9.200;2022-08-19T02:05:12;23.50;64.10
652;DHT22;310;48.490;9.200;2022-08-19T02:07:39;23.30;65.30
652;DHT22;310;48.490;9.200;2022-08-19T02:10:08;23.20;65.90
652;DHT22;310;48.490;9.200;2022-08-19T02:12:34;23.20;64.90
652;DHT22;310;48.490;9.200;2022-08-19T02:15:01;23.30;64.80
652;DHT22;310;48.490;9.200;2022-08-19T02:17:28;23.20;66.20
652;DHT22;310;48.490;9.200;2022-08-19T02:19:54;23.30;64.50
652;DHT22;310;48.490;9.200;2022-08-19T02:22:21;23.40;64.40
652;DHT22;310;48.490;9.200;2022-08-19T02:24:46;23.40;64.90
652;DHT22;310;48.490;9.200;2022-08-19T02:27:13;23.40;64.90
652;DHT22;310;48.490;9.200;2022-08-19T02:29:39;23.20;64.70
652;DHT22;310;48.490;9.200;2022-08-19T02:32:05;23.20;64.80
652;DHT22;310;48.490;9.200;2022-08-19T02:34:30;23.30;65.10
652;DHT22;310;48.490;9.200;2022-08-19T02:36:56;23.40;64.70
652;DHT22;310;48.490;9.200;2022-08-19T02:39:22;23.40;65.20
652;DHT22;310;48.490;9.200;2022-08-19T02:41:47;23.40;64.60
652;DHT22;310;48.490;9.200;2022-08-19T02:44:14;23.30;65.10
652;DHT22;310;48.490;9.200;2022-08-19T02:46:40;23.30;65.50
652;DHT22;310;48.490;9.200;2022-08-19T02:49:07;23.30;64.40
652;DHT22;310;48.490;9.200;2022-08-19T02:51:36;23.30;64.40
652;DHT22;310;48.490;9.200;2022-08-19T02:54:03;23.40;64.70
652;DHT22;310;48.490;9.200;2022-08-19T02:56:30;23.50;64.50
652;DHT22;310;48.490;9.200;2022-08-19T02:58:56;23.40;64.70
652;DHT22;310;48.490;9.200;2022-08-19T03:01:31;23.40;64.40
652;DHT22;310;48.490;9.200;2022-08-19T03:03:58;23.30;65.10
652;DHT22;310;48.490;9.200;2022-08-19T03:06:25;23.30;65.60
652;DHT22;310;48.490;9.200;2022-08-19T03:08:51;23.20;65.70
652;DHT22;310;48.490;9.200;2022-08-19T03:11:29;23.20;65.60
652;DHT22;310;48.490;9.200;2022-08-19T03:13:55;23.20;65.60
652;DHT22;310;48.490;9.200;2022-08-19T03:16:23;23.20;66.20
652;DHT22;310;48.490;9.200;2022-08-19T03:18:50;23.20;66.20
652;DHT22;310;48.490;9.200;2022-08-19T03:21:19;23.20;65.50
652;DHT22;310;48.490;9.200;2022-08-19T03:23:45;23.20;65.10
652;DHT22;310;48.490;9.200;2022-08-19T03:26:10;23.30;65.00
652;DHT22;310;48.490;9.200;2022-08-19T03:28:36;23.20;66.80
652;DHT22;310;48.490;9.200;2022-08-19T03:31:09;23.20;67.00
652;DHT22;310;48.490;9.200;2022-08-19T03:33:35;23.20;65.50
652;DHT22;310;48.490;9.200;2022-08-19T03:36:08;23.20;66.00
652;DHT22;310;48.490;9.200;2022-08-19T03:38:36;23.40;64.80
652;DHT22;310;48.490;9.200;2022-08-19T03:41:04;23.30;64.60
652;DHT22;310;48.490;9.200;2022-08-19T03:43:32;23.20;64.20
652;DHT22;310;48.490;9.200;2022-08-19T03:46:08;23.30;63.60
652;DHT22;310;48.490;9.200;2022-08-19T03:48:36;23.20;66.40
652;DHT22;310;48.490;9.200;2022-08-19T03:51:02;23.10;66.10
652;DHT22;310;48.490;9.200;2022-08-19T03:53:29;23.00;66.20
652;DHT22;310;48.490;9.200;2022-08-19T03:55:56;23.00;67.30
652;DHT22;310;48.490;9.200;2022-08-19T03:58:22;23.20;66.90
652;DHT22;310;48.490;9.200;2022-08-19T04:00:48;23.20;65.90
652;DHT22;310;48.490;9.200;2022-08-19T04:03:15;23.40;63.10
652;DHT22;310;48.490;9.200;2022-08-19T04:05:40;23.20;64.70
652;DHT22;310;48.490;9.200;2022-08-19T04:08:06;23.20;65.60
652;DHT22;310;48.490;9.200;2022-08-19T04:10:38;23.20;64.90
652;DHT22;310;48.490;9.200;2022-08-19T04:13:05;23.10;65.40
652;DHT22;310;48.490;9.200;2022-08-19T04:15:32;23.20;65.60
652;DHT22;310;48.490;9.200;2022-08-19T04:18:05;23.20;65.30
652;DHT22;310;48.490;9.200;2022-08-19T04:20:43;23.40;64.20
652;DHT22;310;48.490;9.200;2022-08-19T04:23:10;23.30;64.70
652;DHT22;310;48.490;9.200;2022-08-19T04:25:41;23.20;66.30
652;DHT22;310;48.490;9.200;2022-08-19T04:28:08;23.20;64.40
652;DHT22;310;48.490;9.200;2022-08-19T04:30:44;23.30;64.50
652;DHT22;310;48.490;9.200;2022-08-19T04:33:11;23.40;61.70
652;DHT22;310;48.490;9.200;2022-08-19T04:35:40;21.90;62.50
652;DHT22;310;48.490;9.200;2022-08-19T04:38:06;23.50;61.80
652;DHT22;310;48.490;9.200;2022-08-19T04:40:31;23.60;61.20
652;DHT22;310;48.490;9.200;2022-08-19T04:43:16;23.50;61.10
652;DHT22;310;48.490;9.200;2022-08-19T04:45:45;23.60;58.60
652;DHT22;310;48.490;9.200;2022-08-19T04:48:11;23.40;62.50
652;DHT22;310;48.490;9.200;2022-08-19T04:50:40;23.40;62.50
652;DHT22;310;48.490;9.200;2022-08-19T04:53:07;23.40;62.00
652;DHT22;310;48.490;9.200;2022-08-19T04:55:33;23.50;61.10
652;DHT22;310;48.490;9.200;2022-08-19T04:57:59;23.40;63.20
652;DHT22;310;48.490;9.200;2022-08-19T05:00:25;23.30;63.20
652;DHT22;310;48.490;9.200;2022-08-19T05:02:50;23.30;63.60
652;DHT22;310;48.490;9.200;2022-08-19T05:05:17;23.40;62.90
652;DHT22;310;48.490;9.200;2022-08-19T05:07:42;23.50;62.00
652;DHT22;310;48.490;9.200;2022-08-19T05:10:08;23.40;61.00
652;DHT22;310;48.490;9.200;2022-08-19T05:12:34;23.40;58.80
652;DHT22;310;48.490;9.200;2022-08-19T05:15:00;23.30;60.90
652;DHT22;310;48.490;9.200;2022-08-19T05:17:27;23.30;62.00
652;DHT22;310;48.490;9.200;2022-08-19T05:19:52;23.50;61.10
652;DHT22;310;48.490;9.200;2022-08-19T05:22:37;23.40;61.00
652;DHT22;310;48.490;9.200;2022-08-19T05:25:08;23.20;63.70
652;DHT22;310;48.490;9.200;2022-08-19T05:27:35;23.40;63.60
652;DHT22;310;48.490;9.200;2022-08-19T05:30:01;23.40;62.80
652;DHT22;310;48.490;9.200;2022-08-19T05:32:27;23.20;63.00
652;DHT22;310;48.490;9.200;2022-08-19T05:34:53;23.40;63.00
652;DHT22;310;48.490;9.200;2022-08-19T05:37:18;23.50;61.60
652;DHT22;310;48.490;9.200;2022-08-19T05:39:44;23.40;60.80
652;DHT22;310;48.490;9.200;2022-08-19T05:42:11;23.40;61.00
652;DHT22;310;48.490;9.200;2022-08-19T05:44:40;23.40;59.60
652;DHT22;310;48.490;9.200;2022-08-19T05:47:10;23.40;58.40
652;DHT22;310;48.490;9.200;2022-08-19T05:49:37;23.40;58.50
652;DHT22;310;48.490;9.200;2022-08-19T05:52:11;23.50;58.30
652;DHT22;310;48.490;9.200;2022-08-19T05:54:39;23.50;58.20
652;DHT22;310;48.490;9.200;2022-08-19T05:57:07;23.50;57.10
652;DHT22;310;48.490;9.200;2022-08-19T05:59:33;23.10;59.10
652;DHT22;310;48.490;9.200;2022-08-19T06:02:01;23.00;62.10
652;DHT22;310;48.490;9.200;2022-08-19T06:04:27;23.10;60.70
652;DHT22;310;48.490;9.200;2022-08-19T06:06:54;23.20;57.60
652;DHT22;310;48.490;9.200;2022-08-19T06:09:20;23.30;57.70
652;DHT22;310;48.490;9.200;2022-08-19T06:11:51;23.40;57.40
652;DHT22;310;48.490;9.200;2022-08-19T06:14:24;23.60;56.50
652;DHT22;310;48.490;9.200;2022-08-19T06:16:50;23.50;57.30
652;DHT22;310;48.490;9.200;2022-08-19T06:19:21;23.60;56.60
652;DHT22;310;48.490;9.200;2022-08-19T06:21:48;23.60;57.00
652;DHT22;310;48.490;9.200;2022-08-19T06:24:18;23.70;56.10
652;DHT22;310;48.490;9.200;2022-08-19T06:26:46;23.70;55.20
652;DHT22;310;48.490;9.200;2022-08-19T06:29:13;23.60;56.40
652;DHT22;310;48.490;9.200;2022-08-19T06:31:45;23.50;56.60
652;DHT22;310;48.490;9.200;2022-08-19T06:34:11;23.50;57.40
652;DHT22;310;48.490;9.200;2022-08-19T06:36:42;23.50;57.20
652;DHT22;310;48.490;9.200;2022-08-19T06:39:12;23.60;58.90
652;DHT22;310;48.490;9.200;2022-08-19T06:41:42;23.60;57.40
652;DHT22;310;48.490;9.200;2022-08-19T06:44:08;23.30;59.70
652;DHT22;310;48.490;9.200;2022-08-19T06:46:35;23.30;62.50
652;DHT22;310;48.490;9.200;2022-08-19T06:49:01;23.40;62.90
652;DHT22;310;48.490;9.200;2022-08-19T06:51:27;23.20;60.80
652;DHT22;310;48.490;9.200;2022-08-19T06:53:55;23.20;65.20
652;DHT22;310;48.490;9.200;2022-08-19T06:56:26;23.20;61.80
652;DHT22;310;48.490;9.200;2022-08-19T06:59:05;22.50;64.70
652;DHT22;310;48.490;9.200;2022-08-19T07:01:35;22.10;70.10
652;DHT22;310;48.490;9.200;2022-08-19T07:04:03;22.10;71.00
652;DHT22;310;48.490;9.200;2022-08-19T07:06:29;22.50;69.80
652;DHT22;310;48.490;9.200;2022-08-19T07:08:57;22.80;68.50
652;DHT22;310;48.490;9.200;2022-08-19T07:11:24;22.90;65.20
652;DHT22;310;48.490;9.200;2022-08-19T07:13:50;22.90;65.90
652;DHT22;310;48.490;9.200;2022-08-19T07:16:17;23.10;65.90
652;DHT22;310;48.490;9.200;2022-08-19T07:18:46;23.00;62.40
652;DHT22;310;48.490;9.200;2022-08-19T07:21:23;23.00;63.80
652;DHT22;310;48.490;9.200;2022-08-19T07:23:50;23.10;63.70
652;DHT22;310;48.490;9.200;2022-08-19T07:26:22;23.20;65.30
652;DHT22;310;48.490;9.200;2022-08-19T07:28:49;23.20;61.30
652;DHT22;310;48.490;9.200;2022-08-19T07:31:17;22.40;66.00
652;DHT22;310;48.490;9.200;2022-08-19T07:33:47;22.30;68.70
652;DHT22;310;48.490;9.200;2022-08-19T07:36:15;22.30;67.70
652;DHT22;310;48.490;9.200;2022-08-19T07:38:43;22.60;68.60
652;DHT22;310;48.490;9.200;2022-08-19T07:41:12;22.80;63.80
652;DHT22;310;48.490;9.200;2022-08-19T07:43:40;22.90;68.20
652;DHT22;310;48.490;9.200;2022-08-19T07:46:06;23.10;64.90
652;DHT22;310;48.490;9.200;2022-08-19T07:48:32;23.40;63.50
652;DHT22;310;48.490;9.200;2022-08-19T07:51:01;23.00;65.00
652;DHT22;310;48.490;9.200;2022-08-19T07:53:29;22.80;65.30
652;DHT22;310;48.490;9.200;2022-08-19T07:55:55;22.80;65.00
652;DHT22;310;48.490;9.200;2022-08-19T07:58:23;22.60;67.50
652;DHT22;310;48.490;9.200;2022-08-19T08:00:50;22.70;63.80
652;DHT22;310;48.490;9.200;2022-08-19T08:03:18;22.80;67.90
652;DHT22;310;48.490;9.200;2022-08-19T08:05:45;23.10;66.90
652;DHT22;310;48.490;9.200;2022-08-19T08:08:29;23.10;64.40
652;DHT22;310;48.490;9.200;2022-08-19T08:11:18;22.80;65.40
652;DHT22;310;48.490;9.200;2022-08-19T08:13:45;22.50;70.50
652;DHT22;310;48.490;9.200;2022-08-19T08:16:10;23.00;67.00
652;DHT22;310;48.490;9.200;2022-08-19T08:18:36;23.40;64.20
652;DHT22;310;48.490;9.200;2022-08-19T08:21:07;23.50;62.10
652;DHT22;310;48.490;9.200;2022-08-19T08:23:34;23.60;61.00
652;DHT22;310;48.490;9.200;2022-08-19T08:26:00;23.60;59.90
652;DHT22;310;48.490;9.200;2022-08-19T08:28:27;23.60;59.70
652;DHT22;310;48.490;9.200;2022-08-19T08:30:53;23.60;60.20
652;DHT22;310;48.490;9.200;2022-08-19T08:33:22;23.60;59.80
652;DHT22;310;48.490;9.200;2022-08-19T08:35:48;23.60;60.70
652;DHT22;310;48.490;9.200;2022-08-19T08:38:15;23.50;61.10
652;DHT22;310;48.490;9.200;2022-08-19T08:41:34;23.10;63.20
652;DHT22;310;48.490;9.200;2022-08-19T08:43:38;23.10;65.20
652;DHT22;310;48.490;9.200;2022-08-19T08:46:42;23.40;62.40
652;DHT22;310;48.490;9.200;2022-08-19T08:54:37;23.40;64.80
652;DHT22;310;48.490;9.200;2022-08-19T08:57:12;23.20;66.90
652;DHT22;310;48.490;9.200;2022-08-19T08:59:40;23.20;67.20
652;DHT22;310;48.490;9.200;2022-08-19T09:02:07;23.10;67.80
652;DHT22;310;48.490;9.200;2022-08-19T09:04:37;23.40;65.20
652;DHT22;310;48.490;9.200;2022-08-19T09:09:45;23.40;65.10
652;DHT22;310;48.490;9.200;2022-08-19T09:15:06;23.40;63.90
652;DHT22;310;48.490;9.200;2022-08-19T09:17:33;23.30;64.50
652;DHT22;310;48.490;9.200;2022-08-19T09:20:18;23.10;66.00
652;DHT22;310;48.490;9.200;2022-08-19T09:22:45;23.10;66.30
652;DHT22;310;48.490;9.200;2022-08-19T09:25:13;23.20;66.50
652;DHT22;310;48.490;9.200;2022-08-19T09:27:41;23.10;66.80
652;DHT22;310;48.490;9.200;2022-08-19T09:30:13;23.20;66.20
652;DHT22;310;48.490;9.200;2022-08-19T09:32:38;23.10;66.30
652;DHT22;310;48.490;9.200;2022-08-19T09:35:07;23.10;66.70
652;DHT22;310;48.490;9.200;2022-08-19T09:37:32;23.00;67.80
652;DHT22;310;48.490;9.200;2022-08-19T09:39:58;23.20;66.50
652;DHT22;310;48.490;9.200;2022-08-19T09:42:24;23.30;65.30
652;DHT22;310;48.490;9.200;2022-08-19T09:44:50;23.30;63.60
652;DHT22;310;48.490;9.200;2022-08-19T09:47:15;23.20;64.80
652;DHT22;310;48.490;9.200;2022-08-19T09:49:41;23.20;65.60
652;DHT22;310;48.490;9.200;2022-08-19T09:52:11;23.20;65.50
652;DHT22;310;48.490;9.200;2022-08-19T09:54:38;23.20;67.10
652;DHT22;310;48.490;9.200;2022-08-19T09:57:04;23.10;67.80
652;DHT22;310;48.490;9.200;2022-08-19T09:59:30;23.00;67.80
652;DHT22;310;48.490;9.200;2022-08-19T10:01:56;23.10;67.60
652;DHT22;310;48.490;9.200;2022-08-19T10:04:22;23.10;67.90
652;DHT22;310;48.490;9.200;2022-08-19T10:06:49;23.20;67.70
652;DHT22;310;48.490;9.200;2022-08-19T10:09:16;23.20;66.80
652;DHT22;310;48.490;9.200;2022-08-19T10:11:44;23.30;67.10
652;DHT22;310;48.490;9.200;2022-08-19T10:14:15;23.30;66.20
652;DHT22;310;48.490;9.200;2022-08-19T10:16:42;23.20;66.00
652;DHT22;310;48.490;9.200;2022-08-19T10:19:08;23.20;66.10
652;DHT22;310;48.490;9.200;2022-08-19T10:21:35;23.40;64.90
652;DHT22;310;48.490;9.200;2022-08-19T10:24:03;23.40;65.80
652;DHT22;310;48.490;9.200;2022-08-19T10:26:32;23.40;65.80
652;DHT22;310;48.490;9.200;2022-08-19T10:28:59;23.50;64.80
652;DHT22;310;48.490;9.200;2022-08-19T10:31:29;23.50;64.40
652;DHT22;310;48.490;9.200;2022-08-19T10:33:56;23.50;65.50
652;DHT22;310;48.490;9.200;2022-08-19T10:36:30;23.40;65.20
652;DHT22;310;48.490;9.200;2022-08-19T10:38:59;23.20;66.90
652;DHT22;310;48.490;9.200;2022-08-19T10:41:29;23.20;66.80
652;DHT22;310;48.490;9.200;2022-08-19T10:43:59;23.50;64.70
652;DHT22;310;48.490;9.200;2022-08-19T10:46:27;23.50;65.50
652;DHT22;310;48.490;9.200;2022-08-19T10:48:53;23.50;64.00
652;DHT22;310;48.490;9.200;2022-08-19T10:51:20;23.40;65.90
652;DHT22;310;48.490;9.200;2022-08-19T10:54:04;22.40;71.90
652;DHT22;310;48.490;9.200;2022-08-19T10:56:30;21.80;79.80
652;DHT22;310;48.490;9.200;2022-08-19T10:59:15;22.50;75.90
652;DHT22;310;48.490;9.200;2022-08-19T11:01:43;22.80;73.30
652;DHT22;310;48.490;9.200;2022-08-19T11:04:10;23.10;69.90
652;DHT22;310;48.490;9.200;2022-08-19T11:06:37;23.20;67.50
652;DHT22;310;48.490;9.200;2022-08-19T11:09:04;23.40;66.20
652;DHT22;310;48.490;9.200;2022-08-19T11:11:30;23.30;67.50
652;DHT22;310;48.490;9.200;2022-08-19T11:13:58;23.40;67.60
652;DHT22;310;48.490;9.200;2022-08-19T11:16:26;23.40;67.40
652;DHT22;310;48.490;9.200;2022-08-19T11:18:57;23.40;67.10
652;DHT22;310;48.490;9.200;2022-08-19T11:21:33;23.40;68.00
652;DHT22;310;48.490;9.200;2022-08-19T11:24:14;23.40;68.50
652;DHT22;310;48.490;9.200;2022-08-19T11:26:41;23.20;69.60
652;DHT22;310;48.490;9.200;2022-08-19T11:29:09;23.20;69.60
652;DHT22;310;48.490;9.200;2022-08-19T11:31:41;23.30;69.20
652;DHT22;310;48.490;9.200;2022-08-19T11:34:10;23.30;68.70
652;DHT22;310;48.490;9.200;2022-08-19T11:36:39;23.40;67.60
652;DHT22;310;48.490;9.200;2022-08-19T11:39:06;23.50;68.20
652;DHT22;310;48.490;9.200;2022-08-19T11:41:32;23.50;68.50
652;DHT22;310;48.490;9.200;2022-08-19T11:43:58;25.40;69.40
652;DHT22;310;48.490;9.200;2022-08-19T11:46:25;23.50;67.60
652;DHT22;310;48.490;9.200;2022-08-19T11:48:53;23.60;68.70
652;DHT22;310;48.490;9.200;2022-08-19T11:51:22;23.60;69.20
652;DHT22;310;48.490;9.200;2022-08-19T11:53:50;23.60;68.90
652;DHT22;310;48.490;9.200;2022-08-19T11:56:17;23.60;69.40
652;DHT22;310;48.490;9.200;2022-08-19T11:58:43;23.60;68.20
652;DHT22;310;48.490;9.200;2022-08-19T12:01:11;23.50;69.20
652;DHT22;310;48.490;9.200;2022-08-19T12:03:38;23.60;70.10
652;DHT22;310;48.490;9.200;2022-08-19T12:06:06;23.60;70.30
652;DHT22;310;48.490;9.200;2022-08-19T12:08:32;23.60;69.90
652;DHT22;310;48.490;9.200;2022-08-19T12:10:57;23.60;69.60
652;DHT22;310;48.490;9.200;2022-08-19T12:13:23;23.60;69.00
652;DHT22;310;48.490;9.200;2022-08-19T12:15:49;23.70;68.70
652;DHT22;310;48.490;9.200;2022-08-19T12:18:15;23.70;68.70
652;DHT22;310;48.490;9.200;2022-08-19T12:20:42;23.60;68.90
652;DHT22;310;48.490;9.200;2022-08-19T12:23:08;23.60;69.40
652;DHT22;310;48.490;9.200;2022-08-19T12:25:35;23.70;68.60
652;DHT22;310;48.490;9.200;2022-08-19T12:28:01;23.70;68.70
652;DHT22;310;48.490;9.200;2022-08-19T12:30:27;23.60;68.20
652;DHT22;310;48.490;9.200;2022-08-19T12:32:53;23.70;69.30
652;DHT22;310;48.490;9.200;2022-08-19T12:35:19;23.70;67.60
652;DHT22;310;48.490;9.200;2022-08-19T12:37:48;23.70;68.30
652;DHT22;310;48.490;9.200;2022-08-19T12:40:15;23.70;67.90
652;DHT22;310;48.490;9.200;2022-08-19T12:42:42;23.80;67.80
652;DHT22;310;48.490;9.200;2022-08-19T12:45:09;23.90;68.00
652;DHT22;310;48.490;9.200;2022-08-19T12:47:35;23.90;68.50
652;DHT22;310;48.490;9.200;2022-08-19T12:50:02;23.90;68.70
652;DHT22;310;48.490;9.200;2022-08-19T12:52:27;23.90;68.60
652;DHT22;310;48.490;9.200;2022-08-19T12:54:55;23.90;67.70
652;DHT22;310;48.490;9.200;2022-08-19T12:57:25;23.90;67.80
652;DHT22;310;48.490;9.200;2022-08-19T12:59:53;23.90;68.10
652;DHT22;310;48.490;9.200;2022-08-19T13:02:22;23.90;68.10
652;DHT22;310;48.490;9.200;2022-08-19T13:04:48;23.90;67.80
652;DHT22;310;48.490;9.200;2022-08-19T13:07:13;24.00;68.80
652;DHT22;310;48.490;9.200;2022-08-19T13:09:39;24.00;67.90
652;DHT22;310;48.490;9.200;2022-08-19T13:12:08;24.00;65.90
652;DHT22;310;48.490;9.200;2022-08-19T13:14:38;24.00;66.90
652;DHT22;310;48.490;9.200;2022-08-19T13:17:05;24.10;66.50
652;DHT22;310;48.490;9.200;2022-08-19T13:19:31;24.00;67.20
652;DHT22;310;48.490;9.200;2022-08-19T13:21:57;24.00;68.00
652;DHT22;310;48.490;9.200;2022-08-19T13:24:23;23.90;68.00
652;DHT22;310;48.490;9.200;2022-08-19T13:26:49;23.90;68.20
652;DHT22;310;48.490;9.200;2022-08-19T13:29:14;23.90;68.10
652;DHT22;310;48.490;9.200;2022-08-19T13:31:58;23.90;67.00
652;DHT22;310;48.490;9.200;2022-08-19T13:34:42;23.90;67.20
652;DHT22;310;48.490;9.200;2022-08-19T13:37:08;23.90;66.60
652;DHT22;310;48.490;9.200;2022-08-19T13:39:35;23.80;66.90
652;DHT22;310;48.490;9.200;2022-08-19T13:42:02;23.80;66.50
652;DHT22;310;48.490;9.200;2022-08-19T13:44:29;23.90;66.80
652;DHT22;310;48.490;9.200;2022-08-19T13:46:59;23.80;67.50
652;DHT22;310;48.490;9.200;2022-08-19T13:49:27;23.50;69.70
652;DHT22;310;48.490;9.200;2022-08-19T13:51:56;23.50;70.20
652;DHT22;310;48.490;9.200;2022-08-19T13:54:22;23.50;69.00
652;DHT22;310;48.490;9.200;2022-08-19T13:56:48;23.50;68.40
652;DHT22;310;48.490;9.200;2022-08-19T13:59:13;23.50;67.70
652;DHT22;310;48.490;9.200;2022-08-19T14:01:40;23.60;68.10
652;DHT22;310;48.490;9.200;2022-08-19T14:04:07;23.70;67.90
652;DHT22;310;48.490;9.200;2022-08-19T14:06:33;23.70;67.90
652;DHT22;310;48.490;9.200;2022-08-19T14:08:59;23.80;66.80
652;DHT22;310;48.490;9.200;2022-08-19T14:11:25;23.80;67.30
652;DHT22;310;48.490;9.200;2022-08-19T14:13:50;23.80;67.70
652;DHT22;310;48.490;9.200;2022-08-19T14:16:16;23.70;67.60
652;DHT22;310;48.490;9.200;2022-08-19T14:18:42;23.70;69.00
652;DHT22;310;48.490;9.200;2022-08-19T14:21:15;23.80;68.50
652;DHT22;310;48.490;9.200;2022-08-19T14:23:40;23.80;68.10
652;DHT22;310;48.490;9.200;2022-08-19T14:26:09;23.80;68.40
652;DHT22;310;48.490;9.200;2022-08-19T14:28:35;23.80;68.70
652;DHT22;310;48.490;9.200;2022-08-19T14:31:00;23.70;69.10
652;DHT22;310;48.490;9.200;2022-08-19T14:33:26;23.50;68.10
652;DHT22;310;48.490;9.200;2022-08-19T14:35:52;23.50;68.60
652;DHT22;310;48.490;9.200;2022-08-19T14:38:18;23.50;68.80
652;DHT22;310;48.490;9.200;2022-08-19T14:40:44;23.60;67.60
652;DHT22;310;48.490;9.200;2022-08-19T14:43:11;23.50;67.60
652;DHT22;310;48.490;9.200;2022-08-19T14:45:38;23.50;68.20
652;DHT22;310;48.490;9.200;2022-08-19T14:48:06;23.40;69.50
652;DHT22;310;48.490;9.200;2022-08-19T14:50:32;23.40;71.00
652;DHT22;310;48.490;9.200;2022-08-19T14:53:00;23.20;70.10
652;DHT22;310;48.490;9.200;2022-08-19T14:55:26;23.00;71.60
652;DHT22;310;48.490;9.200;2022-08-19T14:57:52;23.10;71.20
652;DHT22;310;48.490;9.200;2022-08-19T15:00:18;23.20;71.40
652;DHT22;310;48.490;9.200;2022-08-19T15:02:43;23.30;69.30
652;DHT22;310;48.490;9.200;2022-08-19T15:05:09;23.40;69.00
652;DHT22;310;48.490;9.200;2022-08-19T15:07:36;23.40;67.50
652;DHT22;310;48.490;9.200;2022-08-19T15:10:02;23.40;68.60
652;DHT22;310;48.490;9.200;2022-08-19T15:12:28;23.40;68.90
652;DHT22;310;48.490;9.200;2022-08-19T15:14:53;23.50;68.90
652;DHT22;310;48.490;9.200;2022-08-19T15:17:20;23.50;68.70
652;DHT22;310;48.490;9.200;2022-08-19T15:19:46;23.50;69.00
652;DHT22;310;48.490;9.200;2022-08-19T15:22:12;23.50;69.40
652;DHT22;310;48.490;9.200;2022-08-19T15:24:38;23.50;69.60
652;DHT22;310;48.490;9.200;2022-08-19T15:27:04;23.50;69.30
652;DHT22;310;48.490;9.200;2022-08-19T15:29:31;23.50;69.10
652;DHT22;310;48.490;9.200;2022-08-19T15:31:58;23.50;69.10
652;DHT22;310;48.490;9.200;2022-08-19T15:34:24;23.60;68.10
652;DHT22;310;48.490;9.200;2022-08-19T15:36:51;23.60;69.10
652;DHT22;310;48.490;9.200;2022-08-19T15:39:17;23.70;69.30
652;DHT22;310;48.490;9.200;2022-08-19T15:41:44;23.80;69.30
652;DHT22;310;48.490;9.200;2022-08-19T15:44:17;23.80;69.10
652;DHT22;310;48.490;9.200;2022-08-19T15:46:45;23.90;69.00
652;DHT22;310;48.490;9.200;2022-08-19T15:49:13;24.00;68.30
652;DHT22;310;48.490;9.200;2022-08-19T15:51:41;24.00;68.70
652;DHT22;310;48.490;9.200;2022-08-19T15:54:09;24.00;69.20
652;DHT22;310;48.490;9.200;2022-08-19T15:56:36;24.10;68.00
652;DHT22;310;48.490;9.200;2022-08-19T15:59:32;24.00;67.50
652;DHT22;310;48.490;9.200;2022-08-19T16:02:18;24.00;69.00
652;DHT22;310;48.490;9.200;2022-08-19T16:05:05;24.00;68.10
652;DHT22;310;48.490;9.200;2022-08-19T16:07:50;24.00;67.70
652;DHT22;310;48.490;9.200;2022-08-19T16:10:16;24.00;68.00
652;DHT22;310;48.490;9.200;2022-08-19T16:12:41;24.10;67.40
652;DHT22;310;48.490;9.200;2022-08-19T16:15:08;24.10;67.70
652;DHT22;310;48.490;9.200;2022-08-19T16:17:34;24.10;67.00
652;DHT22;310;48.490;9.200;2022-08-19T16:20:02;24.20;66.80
652;DHT22;310;48.490;9.200;2022-08-19T16:22:29;24.10;67.60
652;DHT22;310;48.490;9.200;2022-08-19T16:24:57;24.20;67.60
652;DHT22;310;48.490;9.200;2022-08-19T16:27:23;24.40;68.30
652;DHT22;310;48.490;9.200;2022-08-19T16:29:49;24.50;68.10
652;DHT22;310;48.490;9.200;2022-08-19T16:32:15;24.60;65.80
652;DHT22;310;48.490;9.200;2022-08-19T16:34:42;24.70;66.90
652;DHT22;310;48.490;9.200;2022-08-19T16:37:08;24.70;65.70
652;DHT22;310;48.490;9.200;2022-08-19T16:39:34;24.70;65.30
652;DHT22;310;48.490;9.200;2022-08-19T16:42:00;24.70;64.80
652;DHT22;310;48.490;9.200;2022-08-19T16:44:26;24.70;65.30
652;DHT22;310;48.490;9.200;2022-08-19T16:46:53;24.60;66.30
652;DHT22;310;48.490;9.200;2022-08-19T16:49:19;24.60;66.60
652;DHT22;310;48.490;9.200;2022-08-19T16:51:44;24.70;64.80